West Hartford, Connecticut
Current Conditions -  °F | °C
As of 7:53 AM on Wednesday 26 Nov 2014 (Local Time) from KHFD Reporting Station
Light Rain Light Rain  
Wind Chill: 36°   Ceiling: 4800
Heat Index: 40°   Visibility: 10mi
Dew Point: 32°   Wind: 6mph
Humidity: 73%   Direction: NA
Pressure: 30.18"   Gusts: NA
Location:  41.76°N, 72.74°W
Report Text: KHFD 261253Z VRB05KT 10SM -RA OVC048 04/00 A3018 RMK AO2 RAB1155 SLP221 P0000 T00440000
Loading
Personal Weather Stations






























Interactive Weather Map New forecast layout! Learn more

10-Day Weather Forecast

Advertisements
Track Severe Weather on mobile